sensor_id;sensor_type;location;lat;lon;timestamp;P1;durP1;ratioP1;P2;durP2;ratioP2
10633;SDS011;5365;51.640;8.106;2022-07-03T00:02:14;1.67;;;1.55;;
10633;SDS011;5365;51.640;8.106;2022-07-03T00:04:36;1.52;;;1.42;;
10633;SDS011;5365;51.640;8.106;2022-07-03T00:06:58;1.70;;;1.60;;
10633;SDS011;5365;51.640;8.106;2022-07-03T00:09:20;1.60;;;1.50;;
10633;SDS011;5365;51.640;8.106;2022-07-03T00:11:42;1.88;;;1.88;;
10633;SDS011;5365;51.640;8.106;2022-07-03T00:14:04;1.80;;;1.70;;
10633;SDS011;5365;51.640;8.106;2022-07-03T00:16:26;2.45;;;1.70;;
10633;SDS011;5365;51.640;8.106;2022-07-03T00:18:47;2.08;;;1.98;;
10633;SDS011;5365;51.640;8.106;2022-07-03T00:21:10;1.67;;;1.58;;
10633;SDS011;5365;51.640;8.106;2022-07-03T00:23:41;1.90;;;1.80;;
10633;SDS011;5365;51.640;8.106;2022-07-03T00:26:05;2.70;;;1.83;;
10633;SDS011;5365;51.640;8.106;2022-07-03T00:28:27;1.38;;;1.38;;
10633;SDS011;5365;51.640;8.106;2022-07-03T00:30:50;2.33;;;1.65;;
10633;SDS011;5365;51.640;8.106;2022-07-03T00:33:13;1.88;;;1.77;;
10633;SDS011;5365;51.640;8.106;2022-07-03T00:35:36;1.90;;;1.80;;
10633;SDS011;5365;51.640;8.106;2022-07-03T00:37:59;3.42;;;1.70;;
10633;SDS011;5365;51.640;8.106;2022-07-03T00:40:22;2.00;;;1.90;;
10633;SDS011;5365;51.640;8.106;2022-07-03T00:42:44;2.08;;;1.80;;
10633;SDS011;5365;51.640;8.106;2022-07-03T00:45:10;1.65;;;1.55;;
10633;SDS011;5365;51.640;8.106;2022-07-03T00:47:34;2.03;;;1.88;;
10633;SDS011;5365;51.640;8.106;2022-07-03T00:49:57;2.22;;;2.00;;
10633;SDS011;5365;51.640;8.106;2022-07-03T00:52:20;2.78;;;2.10;;
10633;SDS011;5365;51.640;8.106;2022-07-03T00:54:44;2.25;;;2.05;;
10633;SDS011;5365;51.640;8.106;2022-07-03T00:57:13;2.10;;;1.83;;
10633;SDS011;5365;51.640;8.106;2022-07-03T00:59:36;3.35;;;2.15;;
10633;SDS011;5365;51.640;8.106;2022-07-03T01:02:05;2.00;;;1.90;;
10633;SDS011;5365;51.640;8.106;2022-07-03T01:04:43;2.08;;;1.98;;
10633;SDS011;5365;51.640;8.106;2022-07-03T01:07:12;2.13;;;2.03;;
10633;SDS011;5365;51.640;8.106;2022-07-03T01:09:44;2.97;;;2.00;;
10633;SDS011;5365;51.640;8.106;2022-07-03T01:12:21;1.98;;;1.88;;
10633;SDS011;5365;51.640;8.106;2022-07-03T01:15:11;2.10;;;2.00;;
10633;SDS011;5365;51.640;8.106;2022-07-03T01:17:39;2.20;;;2.10;;
10633;SDS011;5365;51.640;8.106;2022-07-03T01:20:09;2.60;;;2.40;;
10633;SDS011;5365;51.640;8.106;2022-07-03T01:22:53;2.10;;;2.00;;
10633;SDS011;5365;51.640;8.106;2022-07-03T01:30:15;2.67;;;2.47;;
10633;SDS011;5365;51.640;8.106;2022-07-03T01:32:38;2.15;;;2.05;;
10633;SDS011;5365;51.640;8.106;2022-07-03T01:35:02;2.20;;;2.10;;
10633;SDS011;5365;51.640;8.106;2022-07-03T01:37:30;2.60;;;2.20;;
10633;SDS011;5365;51.640;8.106;2022-07-03T01:39:52;2.40;;;2.20;;
10633;SDS011;5365;51.640;8.106;2022-07-03T01:42:15;2.50;;;2.30;;
10633;SDS011;5365;51.640;8.106;2022-07-03T01:44:39;2.38;;;2.22;;
10633;SDS011;5365;51.640;8.106;2022-07-03T01:47:02;2.40;;;2.30;;
10633;SDS011;5365;51.640;8.106;2022-07-03T01:49:25;3.35;;;2.50;;
10633;SDS011;5365;51.640;8.106;2022-07-03T01:51:48;2.20;;;2.10;;
10633;SDS011;5365;51.640;8.106;2022-07-03T01:54:10;2.42;;;2.20;;
10633;SDS011;5365;51.640;8.106;2022-07-03T01:56:32;2.10;;;2.00;;
10633;SDS011;5365;51.640;8.106;2022-07-03T01:58:54;2.92;;;2.55;;
10633;SDS011;5365;51.640;8.106;2022-07-03T02:01:28;2.58;;;2.38;;
10633;SDS011;5365;51.640;8.106;2022-07-03T02:11:46;2.47;;;2.38;;
10633;SDS011;5365;51.640;8.106;2022-07-03T02:14:12;2.28;;;2.08;;
10633;SDS011;5365;51.640;8.106;2022-07-03T02:17:03;2.50;;;2.30;;
10633;SDS011;5365;51.640;8.106;2022-07-03T02:20:14;2.53;;;2.33;;
10633;SDS011;5365;51.640;8.106;2022-07-03T02:22:25;2.78;;;2.17;;
10633;SDS011;5365;51.640;8.106;2022-07-03T02:24:48;2.15;;;2.05;;
10633;SDS011;5365;51.640;8.106;2022-07-03T02:27:19;2.38;;;2.13;;
10633;SDS011;5365;51.640;8.106;2022-07-03T02:29:54;2.60;;;2.50;;
10633;SDS011;5365;51.640;8.106;2022-07-03T02:32:20;2.38;;;2.28;;
10633;SDS011;5365;51.640;8.106;2022-07-03T02:34:45;2.83;;;2.63;;
10633;SDS011;5365;51.640;8.106;2022-07-03T02:37:10;2.50;;;2.30;;
10633;SDS011;5365;51.640;8.106;2022-07-03T02:39:42;2.53;;;2.33;;
10633;SDS011;5365;51.640;8.106;2022-07-03T02:42:05;2.70;;;2.53;;
10633;SDS011;5365;51.640;8.106;2022-07-03T02:44:40;3.70;;;2.50;;
10633;SDS011;5365;51.640;8.106;2022-07-03T02:49:42;3.05;;;2.30;;
10633;SDS011;5365;51.640;8.106;2022-07-03T02:55:02;2.80;;;2.65;;
10633;SDS011;5365;51.640;8.106;2022-07-03T02:57:41;2.70;;;2.50;;
10633;SDS011;5365;51.640;8.106;2022-07-03T03:00:05;2.70;;;2.50;;
10633;SDS011;5365;51.640;8.106;2022-07-03T03:02:42;3.78;;;2.58;;
10633;SDS011;5365;51.640;8.106;2022-07-03T03:05:15;2.80;;;2.60;;
10633;SDS011;5365;51.640;8.106;2022-07-03T03:10:10;2.60;;;2.40;;
10633;SDS011;5365;51.640;8.106;2022-07-03T03:12:36;2.63;;;2.40;;
10633;SDS011;5365;51.640;8.106;2022-07-03T03:15:03;2.42;;;2.33;;
10633;SDS011;5365;51.640;8.106;2022-07-03T03:17:26;2.53;;;2.42;;
10633;SDS011;5365;51.640;8.106;2022-07-03T03:19:52;2.65;;;2.50;;
10633;SDS011;5365;51.640;8.106;2022-07-03T03:25:15;2.80;;;2.60;;
10633;SDS011;5365;51.640;8.106;2022-07-03T03:27:37;3.08;;;2.35;;
10633;SDS011;5365;51.640;8.106;2022-07-03T03:29:59;2.53;;;2.15;;
10633;SDS011;5365;51.640;8.106;2022-07-03T03:32:21;2.63;;;2.42;;
10633;SDS011;5365;51.640;8.106;2022-07-03T03:34:43;2.90;;;2.70;;
10633;SDS011;5365;51.640;8.106;2022-07-03T03:37:07;2.78;;;2.50;;
10633;SDS011;5365;51.640;8.106;2022-07-03T03:39:28;2.85;;;2.42;;
10633;SDS011;5365;51.640;8.106;2022-07-03T03:41:52;2.92;;;2.63;;
10633;SDS011;5365;51.640;8.106;2022-07-03T03:44:14;2.38;;;2.28;;
10633;SDS011;5365;51.640;8.106;2022-07-03T03:46:35;2.63;;;2.53;;
10633;SDS011;5365;51.640;8.106;2022-07-03T03:48:57;2.85;;;2.65;;
10633;SDS011;5365;51.640;8.106;2022-07-03T03:51:19;2.50;;;2.30;;
10633;SDS011;5365;51.640;8.106;2022-07-03T03:53:41;2.60;;;2.50;;
10633;SDS011;5365;51.640;8.106;2022-07-03T03:58:24;2.58;;;2.38;;
10633;SDS011;5365;51.640;8.106;2022-07-03T04:00:46;3.78;;;2.80;;
10633;SDS011;5365;51.640;8.106;2022-07-03T04:03:08;2.67;;;2.47;;
10633;SDS011;5365;51.640;8.106;2022-07-03T04:05:30;2.90;;;2.67;;
10633;SDS011;5365;51.640;8.106;2022-07-03T04:07:51;2.72;;;2.53;;
10633;SDS011;5365;51.640;8.106;2022-07-03T04:10:13;2.80;;;2.60;;
10633;SDS011;5365;51.640;8.106;2022-07-03T04:12:35;2.50;;;2.30;;
10633;SDS011;5365;51.640;8.106;2022-07-03T04:14:57;3.28;;;3.05;;
10633;SDS011;5365;51.640;8.106;2022-07-03T04:17:19;2.97;;;2.72;;
10633;SDS011;5365;51.640;8.106;2022-07-03T04:19:41;2.72;;;2.60;;
10633;SDS011;5365;51.640;8.106;2022-07-03T04:22:03;3.25;;;2.40;;
10633;SDS011;5365;51.640;8.106;2022-07-03T04:24:29;2.90;;;2.70;;
10633;SDS011;5365;51.640;8.106;2022-07-03T04:26:51;3.50;;;2.42;;
10633;SDS011;5365;51.640;8.106;2022-07-03T04:29:13;2.90;;;2.65;;
10633;SDS011;5365;51.640;8.106;2022-07-03T04:31:35;4.25;;;2.88;;
10633;SDS011;5365;51.640;8.106;2022-07-03T04:33:57;3.08;;;2.70;;
10633;SDS011;5365;51.640;8.106;2022-07-03T04:36:18;3.40;;;2.97;;
10633;SDS011;5365;51.640;8.106;2022-07-03T04:38:40;2.92;;;2.72;;
10633;SDS011;5365;51.640;8.106;2022-07-03T04:41:02;3.47;;;2.72;;
10633;SDS011;5365;51.640;8.106;2022-07-03T04:43:24;2.80;;;2.47;;
10633;SDS011;5365;51.640;8.106;2022-07-03T04:45:46;3.63;;;3.30;;
10633;SDS011;5365;51.640;8.106;2022-07-03T04:48:07;3.13;;;2.92;;
10633;SDS011;5365;51.640;8.106;2022-07-03T04:50:29;3.08;;;2.78;;
10633;SDS011;5365;51.640;8.106;2022-07-03T04:52:51;2.97;;;2.78;;
10633;SDS011;5365;51.640;8.106;2022-07-03T04:55:13;3.38;;;3.00;;
10633;SDS011;5365;51.640;8.106;2022-07-03T04:57:35;2.95;;;2.75;;
10633;SDS011;5365;51.640;8.106;2022-07-03T04:59:57;5.00;;;2.78;;
10633;SDS011;5365;51.640;8.106;2022-07-03T05:02:19;5.30;;;2.97;;
10633;SDS011;5365;51.640;8.106;2022-07-03T05:04:41;3.15;;;2.95;;
10633;SDS011;5365;51.640;8.106;2022-07-03T05:07:02;4.28;;;3.28;;
10633;SDS011;5365;51.640;8.106;2022-07-03T05:09:24;3.40;;;3.20;;
10633;SDS011;5365;51.640;8.106;2022-07-03T05:11:47;3.35;;;3.05;;
10633;SDS011;5365;51.640;8.106;2022-07-03T05:14:08;3.30;;;3.00;;
10633;SDS011;5365;51.640;8.106;2022-07-03T05:16:30;4.05;;;3.03;;
10633;SDS011;5365;51.640;8.106;2022-07-03T05:18:52;3.08;;;2.78;;
10633;SDS011;5365;51.640;8.106;2022-07-03T05:21:14;3.10;;;2.92;;
10633;SDS011;5365;51.640;8.106;2022-07-03T05:23:36;3.42;;;3.13;;
10633;SDS011;5365;51.640;8.106;2022-07-03T05:25:57;3.67;;;3.38;;
10633;SDS011;5365;51.640;8.106;2022-07-03T05:28:21;2.90;;;2.70;;
10633;SDS011;5365;51.640;8.106;2022-07-03T05:30:42;3.35;;;3.13;;
10633;SDS011;5365;51.640;8.106;2022-07-03T05:33:04;4.82;;;2.90;;
10633;SDS011;5365;51.640;8.106;2022-07-03T05:35:26;3.88;;;2.70;;
10633;SDS011;5365;51.640;8.106;2022-07-03T05:37:48;3.13;;;2.92;;
10633;SDS011;5365;51.640;8.106;2022-07-03T05:40:10;5.07;;;2.90;;
10633;SDS011;5365;51.640;8.106;2022-07-03T05:42:32;3.00;;;2.80;;
10633;SDS011;5365;51.640;8.106;2022-07-03T05:44:54;3.08;;;2.88;;
10633;SDS011;5365;51.640;8.106;2022-07-03T05:47:16;3.60;;;2.75;;
10633;SDS011;5365;51.640;8.106;2022-07-03T05:49:38;3.38;;;2.28;;
10633;SDS011;5365;51.640;8.106;2022-07-03T05:51:59;2.53;;;2.33;;
10633;SDS011;5365;51.640;8.106;2022-07-03T05:54:21;2.42;;;2.33;;
10633;SDS011;5365;51.640;8.106;2022-07-03T05:56:43;2.70;;;2.50;;
10633;SDS011;5365;51.640;8.106;2022-07-03T05:59:05;2.85;;;2.65;;
10633;SDS011;5365;51.640;8.106;2022-07-03T06:01:26;2.42;;;2.22;;
10633;SDS011;5365;51.640;8.106;2022-07-03T06:03:48;2.70;;;2.50;;
10633;SDS011;5365;51.640;8.106;2022-07-03T06:06:11;2.20;;;2.10;;
10633;SDS011;5365;51.640;8.106;2022-07-03T06:08:32;4.03;;;2.92;;
10633;SDS011;5365;51.640;8.106;2022-07-03T06:10:54;2.50;;;2.30;;
10633;SDS011;5365;51.640;8.106;2022-07-03T06:13:16;2.30;;;2.20;;
10633;SDS011;5365;51.640;8.106;2022-07-03T06:15:38;2.33;;;2.22;;
10633;SDS011;5365;51.640;8.106;2022-07-03T06:18:00;2.60;;;2.40;;
10633;SDS011;5365;51.640;8.106;2022-07-03T06:20:22;2.38;;;2.20;;
10633;SDS011;5365;51.640;8.106;2022-07-03T06:22:43;4.25;;;2.65;;
10633;SDS011;5365;51.640;8.106;2022-07-03T06:25:05;3.00;;;2.35;;
10633;SDS011;5365;51.640;8.106;2022-07-03T06:27:27;2.70;;;2.60;;
10633;SDS011;5365;51.640;8.106;2022-07-03T06:29:50;2.72;;;2.47;;
10633;SDS011;5365;51.640;8.106;2022-07-03T06:32:12;2.55;;;2.40;;
10633;SDS011;5365;51.640;8.106;2022-07-03T06:34:33;2.58;;;2.38;;
10633;SDS011;5365;51.640;8.106;2022-07-03T06:36:55;1.98;;;1.88;;
10633;SDS011;5365;51.640;8.106;2022-07-03T06:39:17;2.60;;;2.40;;
10633;SDS011;5365;51.640;8.106;2022-07-03T06:41:39;2.85;;;2.40;;
10633;SDS011;5365;51.640;8.106;2022-07-03T06:44:00;3.08;;;2.33;;
10633;SDS011;5365;51.640;8.106;2022-07-03T06:46:22;2.33;;;2.22;;
10633;SDS011;5365;51.640;8.106;2022-07-03T06:48:44;2.20;;;2.10;;
10633;SDS011;5365;51.640;8.106;2022-07-03T06:51:06;2.30;;;2.15;;
10633;SDS011;5365;51.640;8.106;2022-07-03T06:53:28;2.33;;;2.22;;
10633;SDS011;5365;51.640;8.106;2022-07-03T06:55:49;2.15;;;1.95;;
10633;SDS011;5365;51.640;8.106;2022-07-03T06:58:11;2.65;;;2.45;;
10633;SDS011;5365;51.640;8.106;2022-07-03T07:00:33;2.20;;;2.10;;
10633;SDS011;5365;51.640;8.106;2022-07-03T07:02:55;3.90;;;2.47;;
10633;SDS011;5365;51.640;8.106;2022-07-03T07:05:19;2.50;;;2.30;;
10633;SDS011;5365;51.640;8.106;2022-07-03T07:07:41;2.70;;;1.98;;
10633;SDS011;5365;51.640;8.106;2022-07-03T07:10:03;2.42;;;2.22;;
10633;SDS011;5365;51.640;8.106;2022-07-03T07:12:25;2.30;;;1.90;;
10633;SDS011;5365;51.640;8.106;2022-07-03T07:14:49;2.10;;;2.00;;
10633;SDS011;5365;51.640;8.106;2022-07-03T07:17:11;2.25;;;2.10;;
10633;SDS011;5365;51.640;8.106;2022-07-03T07:19:33;1.73;;;1.63;;
10633;SDS011;5365;51.640;8.106;2022-07-03T07:21:55;2.40;;;2.22;;
10633;SDS011;5365;51.640;8.106;2022-07-03T07:24:17;4.68;;;2.40;;
10633;SDS011;5365;51.640;8.106;2022-07-03T07:26:38;2.10;;;1.98;;
10633;SDS011;5365;51.640;8.106;2022-07-03T07:29:00;1.80;;;1.73;;
10633;SDS011;5365;51.640;8.106;2022-07-03T07:31:22;2.13;;;1.58;;
10633;SDS011;5365;51.640;8.106;2022-07-03T07:33:44;1.48;;;1.38;;
10633;SDS011;5365;51.640;8.106;2022-07-03T07:36:05;2.50;;;1.60;;
10633;SDS011;5365;51.640;8.106;2022-07-03T07:38:27;1.40;;;1.35;;
10633;SDS011;5365;51.640;8.106;2022-07-03T07:40:49;1.80;;;1.70;;
10633;SDS011;5365;51.640;8.106;2022-07-03T07:43:11;1.50;;;1.50;;
10633;SDS011;5365;51.640;8.106;2022-07-03T07:45:32;1.50;;;1.40;;
10633;SDS011;5365;51.640;8.106;2022-07-03T07:47:54;1.50;;;1.50;;
10633;SDS011;5365;51.640;8.106;2022-07-03T07:50:16;1.55;;;1.55;;
10633;SDS011;5365;51.640;8.106;2022-07-03T07:52:38;1.40;;;1.40;;
10633;SDS011;5365;51.640;8.106;2022-07-03T07:54:59;1.65;;;1.55;;
10633;SDS011;5365;51.640;8.106;2022-07-03T07:57:21;1.88;;;1.67;;
10633;SDS011;5365;51.640;8.106;2022-07-03T07:59:43;1.70;;;1.60;;
10633;SDS011;5365;51.640;8.106;2022-07-03T08:02:07;1.50;;;1.40;;
10633;SDS011;5365;51.640;8.106;2022-07-03T08:04:47;1.50;;;1.50;;
10633;SDS011;5365;51.640;8.106;2022-07-03T08:07:28;2.65;;;1.60;;
10633;SDS011;5365;51.640;8.106;2022-07-03T08:09:50;1.48;;;1.48;;
10633;SDS011;5365;51.640;8.106;2022-07-03T08:12:14;1.15;;;1.10;;
10633;SDS011;5365;51.640;8.106;2022-07-03T08:14:36;7.68;;;1.60;;
10633;SDS011;5365;51.640;8.106;2022-07-03T08:16:59;1.50;;;1.20;;
10633;SDS011;5365;51.640;8.106;2022-07-03T08:19:21;1.60;;;1.50;;
10633;SDS011;5365;51.640;8.106;2022-07-03T08:21:43;1.80;;;1.70;;
10633;SDS011;5365;51.640;8.106;2022-07-03T08:24:04;2.58;;;1.42;;
10633;SDS011;5365;51.640;8.106;2022-07-03T08:26:26;1.15;;;1.15;;
10633;SDS011;5365;51.640;8.106;2022-07-03T08:28:50;1.63;;;1.60;;
10633;SDS011;5365;51.640;8.106;2022-07-03T08:31:11;2.20;;;1.58;;
10633;SDS011;5365;51.640;8.106;2022-07-03T08:33:33;2.15;;;1.20;;
10633;SDS011;5365;51.640;8.106;2022-07-03T08:35:58;1.50;;;1.42;;
10633;SDS011;5365;51.640;8.106;2022-07-03T08:38:21;1.40;;;1.30;;
10633;SDS011;5365;51.640;8.106;2022-07-03T08:40:47;1.65;;;1.55;;
10633;SDS011;5365;51.640;8.106;2022-07-03T08:43:11;2.15;;;1.40;;
10633;SDS011;5365;51.640;8.106;2022-07-03T08:45:33;1.20;;;1.20;;
10633;SDS011;5365;51.640;8.106;2022-07-03T08:47:59;1.20;;;1.20;;
10633;SDS011;5365;51.640;8.106;2022-07-03T08:50:21;3.75;;;1.30;;
10633;SDS011;5365;51.640;8.106;2022-07-03T08:52:43;1.45;;;1.35;;
10633;SDS011;5365;51.640;8.106;2022-07-03T08:55:06;1.40;;;1.10;;
10633;SDS011;5365;51.640;8.106;2022-07-03T08:57:28;1.25;;;1.20;;
10633;SDS011;5365;51.640;8.106;2022-07-03T08:59:52;1.00;;;0.98;;
10633;SDS011;5365;51.640;8.106;2022-07-03T09:02:15;1.75;;;1.10;;
10633;SDS011;5365;51.640;8.106;2022-07-03T09:04:36;1.00;;;1.00;;
10633;SDS011;5365;51.640;8.106;2022-07-03T09:06:59;2.13;;;1.20;;
10633;SDS011;5365;51.640;8.106;2022-07-03T09:09:21;2.25;;;1.27;;
10633;SDS011;5365;51.640;8.106;2022-07-03T09:11:43;1.13;;;1.02;;
10633;SDS011;5365;51.640;8.106;2022-07-03T09:14:05;0.90;;;0.90;;
10633;SDS011;5365;51.640;8.106;2022-07-03T09:16:28;1.70;;;0.90;;
10633;SDS011;5365;51.640;8.106;2022-07-03T09:18:49;2.30;;;1.20;;
10633;SDS011;5365;51.640;8.106;2022-07-03T09:21:11;1.60;;;1.00;;
10633;SDS011;5365;51.640;8.106;2022-07-03T09:23:37;1.27;;;1.15;;
10633;SDS011;5365;51.640;8.106;2022-07-03T09:26:01;1.15;;;1.15;;
10633;SDS011;5365;51.640;8.106;2022-07-03T09:28:24;1.40;;;1.40;;
10633;SDS011;5365;51.640;8.106;2022-07-03T09:31:02;1.30;;;1.20;;
10633;SDS011;5365;51.640;8.106;2022-07-03T09:33:24;1.40;;;1.30;;
10633;SDS011;5365;51.640;8.106;2022-07-03T09:35:46;1.33;;;1.15;;
10633;SDS011;5365;51.640;8.106;2022-07-03T09:38:15;1.95;;;1.38;;
10633;SDS011;5365;51.640;8.106;2022-07-03T09:40:47;0.95;;;0.90;;
10633;SDS011;5365;51.640;8.106;2022-07-03T09:43:09;1.20;;;1.20;;
10633;SDS011;5365;51.640;8.106;2022-07-03T09:48:25;1.25;;;1.25;;
10633;SDS011;5365;51.640;8.106;2022-07-03T09:53:30;1.35;;;1.35;;
10633;SDS011;5365;51.640;8.106;2022-07-03T09:56:04;1.60;;;1.17;;
10633;SDS011;5365;51.640;8.106;2022-07-03T09:58:26;1.77;;;1.58;;
10633;SDS011;5365;51.640;8.106;2022-07-03T10:00:48;1.45;;;1.30;;
10633;SDS011;5365;51.640;8.106;2022-07-03T10:03:10;1.67;;;1.40;;
10633;SDS011;5365;51.640;8.106;2022-07-03T10:05:35;1.70;;;1.60;;
10633;SDS011;5365;51.640;8.106;2022-07-03T10:08:08;1.52;;;1.42;;
10633;SDS011;5365;51.640;8.106;2022-07-03T10:10:42;1.65;;;1.55;;
10633;SDS011;5365;51.640;8.106;2022-07-03T10:13:05;3.03;;;1.30;;
10633;SDS011;5365;51.640;8.106;2022-07-03T10:15:27;1.15;;;1.15;;
10633;SDS011;5365;51.640;8.106;2022-07-03T10:17:51;1.30;;;1.05;;
10633;SDS011;5365;51.640;8.106;2022-07-03T10:20:15;1.30;;;1.20;;
10633;SDS011;5365;51.640;8.106;2022-07-03T10:22:39;1.30;;;1.20;;
10633;SDS011;5365;51.640;8.106;2022-07-03T10:25:03;3.08;;;1.83;;
10633;SDS011;5365;51.640;8.106;2022-07-03T10:27:25;1.95;;;1.20;;
10633;SDS011;5365;51.640;8.106;2022-07-03T10:29:48;0.85;;;0.85;;
10633;SDS011;5365;51.640;8.106;2022-07-03T10:32:11;0.90;;;0.90;;
10633;SDS011;5365;51.640;8.106;2022-07-03T10:34:32;1.38;;;1.30;;
10633;SDS011;5365;51.640;8.106;2022-07-03T10:36:58;1.00;;;0.88;;
10633;SDS011;5365;51.640;8.106;2022-07-03T10:41:55;1.70;;;1.00;;
10633;SDS011;5365;51.640;8.106;2022-07-03T10:44:48;1.10;;;1.00;;
10633;SDS011;5365;51.640;8.106;2022-07-03T10:50:10;1.58;;;1.15;;
10633;SDS011;5365;51.640;8.106;2022-07-03T10:52:42;1.30;;;1.30;;
10633;SDS011;5365;51.640;8.106;2022-07-03T10:55:04;1.50;;;1.40;;
10633;SDS011;5365;51.640;8.106;2022-07-03T10:57:28;1.48;;;1.23;;
10633;SDS011;5365;51.640;8.106;2022-07-03T11:02:17;1.90;;;1.10;;
10633;SDS011;5365;51.640;8.106;2022-07-03T11:07:19;1.08;;;1.00;;
10633;SDS011;5365;51.640;8.106;2022-07-03T11:09:41;1.17;;;1.17;;
10633;SDS011;5365;51.640;8.106;2022-07-03T11:12:03;1.20;;;1.20;;
10633;SDS011;5365;51.640;8.106;2022-07-03T11:14:28;2.00;;;1.20;;
10633;SDS011;5365;51.640;8.106;2022-07-03T11:19:41;1.60;;;1.30;;
10633;SDS011;5365;51.640;8.106;2022-07-03T11:22:04;2.40;;;1.50;;
10633;SDS011;5365;51.640;8.106;2022-07-03T11:24:32;1.17;;;1.15;;
10633;SDS011;5365;51.640;8.106;2022-07-03T11:29:53;1.92;;;1.48;;
10633;SDS011;5365;51.640;8.106;2022-07-03T11:32:25;1.58;;;1.27;;
10633;SDS011;5365;51.640;8.106;2022-07-03T11:35:04;1.20;;;1.20;;
10633;SDS011;5365;51.640;8.106;2022-07-03T11:37:26;1.83;;;1.48;;
10633;SDS011;5365;51.640;8.106;2022-07-03T11:39:48;1.58;;;1.40;;
10633;SDS011;5365;51.640;8.106;2022-07-03T11:42:12;2.05;;;1.58;;
10633;SDS011;5365;51.640;8.106;2022-07-03T11:44:34;1.10;;;1.10;;
10633;SDS011;5365;51.640;8.106;2022-07-03T11:46:55;1.50;;;1.40;;
10633;SDS011;5365;51.640;8.106;2022-07-03T11:49:19;1.30;;;1.30;;
10633;SDS011;5365;51.640;8.106;2022-07-03T11:51:43;1.92;;;1.40;;
10633;SDS011;5365;51.640;8.106;2022-07-03T11:54:15;1.80;;;1.70;;
10633;SDS011;5365;51.640;8.106;2022-07-03T11:56:36;2.25;;;1.90;;
10633;SDS011;5365;51.640;8.106;2022-07-03T11:59:00;1.55;;;1.48;;
10633;SDS011;5365;51.640;8.106;2022-07-03T12:03:46;2.05;;;1.88;;
10633;SDS011;5365;51.640;8.106;2022-07-03T12:06:08;2.60;;;1.60;;
10633;SDS011;5365;51.640;8.106;2022-07-03T12:08:31;1.38;;;1.38;;
10633;SDS011;5365;51.640;8.106;2022-07-03T12:11:08;1.70;;;1.60;;
10633;SDS011;5365;51.640;8.106;2022-07-03T12:13:30;2.58;;;1.67;;
10633;SDS011;5365;51.640;8.106;2022-07-03T12:15:53;1.50;;;1.40;;
10633;SDS011;5365;51.640;8.106;2022-07-03T12:18:15;1.75;;;1.65;;
10633;SDS011;5365;51.640;8.106;2022-07-03T12:20:37;2.08;;;1.50;;
10633;SDS011;5365;51.640;8.106;2022-07-03T12:22:59;3.47;;;1.50;;
10633;SDS011;5365;51.640;8.106;2022-07-03T12:25:21;1.60;;;1.50;;
10633;SDS011;5365;51.640;8.106;2022-07-03T12:27:43;1.50;;;1.50;;
10633;SDS011;5365;51.640;8.106;2022-07-03T12:30:06;1.67;;;1.33;;
10633;SDS011;5365;51.640;8.106;2022-07-03T12:32:29;1.73;;;1.63;;
10633;SDS011;5365;51.640;8.106;2022-07-03T12:34:51;1.63;;;1.40;;
10633;SDS011;5365;51.640;8.106;2022-07-03T12:37:12;1.38;;;1.27;;
10633;SDS011;5365;51.640;8.106;2022-07-03T12:39:44;1.63;;;1.50;;
10633;SDS011;5365;51.640;8.106;2022-07-03T12:42:21;1.50;;;1.40;;
10633;SDS011;5365;51.640;8.106;2022-07-03T12:44:59;2.70;;;1.73;;
10633;SDS011;5365;51.640;8.106;2022-07-03T12:47:23;2.55;;;1.58;;
10633;SDS011;5365;51.640;8.106;2022-07-03T12:49:45;1.30;;;1.30;;
10633;SDS011;5365;51.640;8.106;2022-07-03T12:52:07;2.78;;;1.60;;
10633;SDS011;5365;51.640;8.106;2022-07-03T12:54:32;1.92;;;1.67;;
10633;SDS011;5365;51.640;8.106;2022-07-03T12:57:05;2.15;;;1.30;;
10633;SDS011;5365;51.640;8.106;2022-07-03T13:00:08;2.08;;;1.60;;
10633;SDS011;5365;51.640;8.106;2022-07-03T13:02:35;1.60;;;1.50;;
10633;SDS011;5365;51.640;8.106;2022-07-03T13:04:58;4.05;;;1.88;;
10633;SDS011;5365;51.640;8.106;2022-07-03T13:07:21;1.40;;;1.40;;
10633;SDS011;5365;51.640;8.106;2022-07-03T13:09:43;1.40;;;1.40;;
10633;SDS011;5365;51.640;8.106;2022-07-03T13:12:06;2.15;;;1.70;;
10633;SDS011;5365;51.640;8.106;2022-07-03T13:14:29;1.42;;;1.33;;
10633;SDS011;5365;51.640;8.106;2022-07-03T13:16:52;1.58;;;1.40;;
10633;SDS011;5365;51.640;8.106;2022-07-03T13:19:16;1.70;;;1.60;;
10633;SDS011;5365;51.640;8.106;2022-07-03T13:21:39;1.30;;;1.30;;
10633;SDS011;5365;51.640;8.106;2022-07-03T13:24:01;1.70;;;1.60;;
10633;SDS011;5365;51.640;8.106;2022-07-03T13:26:23;1.88;;;1.67;;
10633;SDS011;5365;51.640;8.106;2022-07-03T13:28:45;1.67;;;1.55;;
10633;SDS011;5365;51.640;8.106;2022-07-03T13:31:07;1.60;;;1.50;;
10633;SDS011;5365;51.640;8.106;2022-07-03T13:33:28;1.30;;;1.30;;
10633;SDS011;5365;51.640;8.106;2022-07-03T13:35:50;1.23;;;1.23;;
10633;SDS011;5365;51.640;8.106;2022-07-03T13:38:12;1.33;;;1.17;;
10633;SDS011;5365;51.640;8.106;2022-07-03T13:40:34;1.52;;;1.42;;
10633;SDS011;5365;51.640;8.106;2022-07-03T13:42:57;1.55;;;1.45;;
10633;SDS011;5365;51.640;8.106;2022-07-03T13:45:19;2.05;;;1.45;;
10633;SDS011;5365;51.640;8.106;2022-07-03T13:47:41;1.40;;;1.40;;
10633;SDS011;5365;51.640;8.106;2022-07-03T13:50:03;1.67;;;1.58;;
10633;SDS011;5365;51.640;8.106;2022-07-03T13:52:26;1.60;;;1.50;;
10633;SDS011;5365;51.640;8.106;2022-07-03T13:54:47;1.95;;;1.35;;
10633;SDS011;5365;51.640;8.106;2022-07-03T13:57:09;1.73;;;1.63;;
10633;SDS011;5365;51.640;8.106;2022-07-03T13:59:31;1.98;;;1.48;;
10633;SDS011;5365;51.640;8.106;2022-07-03T14:01:53;1.45;;;1.38;;
10633;SDS011;5365;51.640;8.106;2022-07-03T14:04:15;2.30;;;1.60;;
10633;SDS011;5365;51.640;8.106;2022-07-03T14:06:36;1.50;;;1.50;;
10633;SDS011;5365;51.640;8.106;2022-07-03T14:08:58;1.67;;;1.58;;
10633;SDS011;5365;51.640;8.106;2022-07-03T14:11:20;2.20;;;1.63;;
10633;SDS011;5365;51.640;8.106;2022-07-03T14:13:42;1.40;;;1.40;;
10633;SDS011;5365;51.640;8.106;2022-07-03T14:16:04;1.50;;;1.40;;
10633;SDS011;5365;51.640;8.106;2022-07-03T14:18:25;1.75;;;1.60;;
10633;SDS011;5365;51.640;8.106;2022-07-03T14:20:47;1.63;;;1.40;;
10633;SDS011;5365;51.640;8.106;2022-07-03T14:23:09;1.70;;;1.60;;
10633;SDS011;5365;51.640;8.106;2022-07-03T14:25:31;1.60;;;1.50;;
10633;SDS011;5365;51.640;8.106;2022-07-03T14:27:52;1.67;;;1.58;;
10633;SDS011;5365;51.640;8.106;2022-07-03T14:30:33;1.70;;;1.60;;
10633;SDS011;5365;51.640;8.106;2022-07-03T14:33:13;2.47;;;1.70;;
10633;SDS011;5365;51.640;8.106;2022-07-03T14:35:35;1.83;;;1.67;;
10633;SDS011;5365;51.640;8.106;2022-07-03T14:37:57;1.42;;;1.20;;
10633;SDS011;5365;51.640;8.106;2022-07-03T14:40:19;1.40;;;1.35;;
10633;SDS011;5365;51.640;8.106;2022-07-03T14:42:41;1.60;;;1.50;;
10633;SDS011;5365;51.640;8.106;2022-07-03T14:45:03;1.50;;;1.40;;
10633;SDS011;5365;51.640;8.106;2022-07-03T14:47:25;1.10;;;1.10;;
10633;SDS011;5365;51.640;8.106;2022-07-03T14:49:47;1.23;;;1.23;;
10633;SDS011;5365;51.640;8.106;2022-07-03T14:52:09;2.70;;;1.75;;
10633;SDS011;5365;51.640;8.106;2022-07-03T14:54:31;2.85;;;1.50;;
10633;SDS011;5365;51.640;8.106;2022-07-03T14:56:54;2.13;;;1.48;;
10633;SDS011;5365;51.640;8.106;2022-07-03T14:59:16;1.23;;;1.23;;
10633;SDS011;5365;51.640;8.106;2022-07-03T15:01:49;1.65;;;1.13;;
10633;SDS011;5365;51.640;8.106;2022-07-03T15:04:17;1.60;;;1.50;;
10633;SDS011;5365;51.640;8.106;2022-07-03T15:06:42;2.33;;;1.50;;
10633;SDS011;5365;51.640;8.106;2022-07-03T15:09:04;2.45;;;1.40;;
10633;SDS011;5365;51.640;8.106;2022-07-03T15:14:13;1.52;;;1.52;;
10633;SDS011;5365;51.640;8.106;2022-07-03T15:16:35;1.90;;;1.80;;
10633;SDS011;5365;51.640;8.106;2022-07-03T15:19:00;2.35;;;1.60;;
10633;SDS011;5365;51.640;8.106;2022-07-03T15:21:23;1.60;;;1.50;;
10633;SDS011;5365;51.640;8.106;2022-07-03T15:23:46;1.42;;;1.33;;
10633;SDS011;5365;51.640;8.106;2022-07-03T15:26:09;4.15;;;1.95;;
10633;SDS011;5365;51.640;8.106;2022-07-03T15:28:31;1.60;;;1.60;;
10633;SDS011;5365;51.640;8.106;2022-07-03T15:30:53;2.53;;;1.73;;
10633;SDS011;5365;51.640;8.106;2022-07-03T15:33:16;1.92;;;1.83;;
10633;SDS011;5365;51.640;8.106;2022-07-03T15:35:38;1.70;;;1.60;;